Main page
METAR-TAF:

METAR-TAF

Airports :

Brenner Field

Falls City, Nebraska, United States

latitude: 40-04-44N, longitude: 095-35-31W, elevation: 984 ft

Current weather observation

The report was made 34 minutes ago, at 21:53 UTC
Wind 18 mph from the South/Southeast with gusts up to 28 mph
Temperature 73°F
Humidity 33%
Pressure 29.78 in. Hg
Visibility: 10 miles
Clear sky

METAR: KFNB 012153Z AUTO 16016G24KT 10SM CLR 23/06 A2978 RMK AO2 PK WND 16032/2057 SLP080 T02280056

Time: 17:27 (22:27 UTC)


TAF: missing

Weather observations and forecasts of more than 4000 airports (METAR and TAF reports).

The available stations are represented by yellow and red dots on the map.

Hover mouse over dot to see the name of the station.

Then click to see weather observations and forecasts.

To change the map : click on the green buttons with a black cross to zoom in, on the green button with a dash to zoom out, or on the green arrows for adjacent maps.


METAR-TAF: